Time;durP1;ratioP1;P1;durP2;ratioP2;P2;SDS_P1;SDS_P2;PMS_P1;PMS_P2;Temp;Humidity;BMP_temperature;BMP_pressure;BME280_temperature;BME280_humidity;BME280_pressure;Samples;Min_cycle;Max_cycle;Signal;HPM_P1;HPM_P2
2020/12/01 00:02:04;;;;;;;12.32;7.63;;;1.30;74.50;;;;;;5060050;28;20025;-73
2020/12/01 00:04:30;;;;;;;12.88;7.03;;;1.30;74.40;;;;;;5059999;28;20079;-73
2020/12/01 00:06:55;;;;;;;11.07;7.40;;;1.30;74.30;;;;;;5059967;28;20465;-73
2020/12/01 00:09:21;;;;;;;9.60;6.95;;;1.30;74.20;;;;;;5060545;28;20409;-73
2020/12/01 00:11:47;;;;;;;10.32;7.03;;;1.30;74.20;;;;;;5059891;28;20040;-73
2020/12/01 00:14:13;;;;;;;10.68;6.78;;;1.30;74.80;;;;;;5059802;28;20325;-73
2020/12/01 00:16:38;;;;;;;8.57;6.70;;;1.30;74.60;;;;;;5059416;28;20053;-73
2020/12/01 00:19:04;;;;;;;10.15;7.32;;;1.30;75.00;;;;;;5059824;28;20079;-73
2020/12/01 00:21:30;;;;;;;10.40;6.88;;;1.40;74.70;;;;;;5041988;28;20287;-73
2020/12/01 00:23:56;;;;;;;9.35;6.55;;;1.70;73.60;;;;;;5059598;28;20037;-73
2020/12/01 00:26:21;;;;;;;10.90;7.22;;;1.80;73.20;;;;;;5059869;28;20025;-73
2020/12/01 00:28:49;;;;;;;10.38;6.65;;;1.70;73.20;;;;;;5059981;28;20052;-73
2020/12/01 00:31:16;;;;;;;10.93;6.70;;;1.60;73.80;;;;;;5059548;28;20028;-73
2020/12/01 00:33:42;;;;;;;10.32;6.90;;;1.40;74.40;;;;;;5059413;28;20411;-73
2020/12/01 00:36:09;;;;;;;11.57;7.32;;;1.30;74.70;;;;;;5059377;28;20032;-73
2020/12/01 00:38:34;;;;;;;9.48;7.03;;;1.30;74.90;;;;;;5059412;28;20029;-73
2020/12/01 00:41:00;;;;;;;11.52;7.25;;;1.30;75.10;;;;;;5059654;28;20013;-73
2020/12/01 00:43:26;;;;;;;12.10;7.22;;;1.30;75.10;;;;;;5058792;28;20468;-73
2020/12/01 00:45:52;;;;;;;13.00;7.00;;;1.30;74.80;;;;;;5059028;28;20036;-73
2020/12/01 00:48:17;;;;;;;10.30;7.13;;;1.40;74.30;;;;;;5059243;28;20421;-73
2020/12/01 00:50:44;;;;;;;10.10;7.07;;;1.60;73.30;;;;;;5059233;28;20021;-73
2020/12/01 00:53:13;;;;;;;10.68;7.55;;;1.70;72.80;;;;;;5059127;28;20033;-73
2020/12/01 00:55:39;;;;;;;8.63;6.35;;;1.80;73.40;;;;;;5058991;28;20017;-73
2020/12/01 00:58:05;;;;;;;11.75;7.10;;;1.80;73.00;;;;;;5058976;28;20298;-73
2020/12/01 01:00:31;;;;;;;11.90;7.88;;;1.80;72.60;;;;;;5059297;28;20053;-73
2020/12/01 01:02:57;;;;;;;10.73;7.15;;;1.70;73.60;;;;;;5058942;28;20028;-73
2020/12/01 01:05:23;;;;;;;12.85;7.10;;;1.70;73.00;;;;;;5058849;28;20066;-73
2020/12/01 01:07:49;;;;;;;10.43;6.45;;;1.60;73.10;;;;;;5058853;28;20356;-73
2020/12/01 01:10:20;;;;;;;9.18;7.18;;;1.40;73.40;;;;;;5058831;28;20413;-73
2020/12/01 01:12:46;;;;;;;9.98;6.97;;;1.20;73.80;;;;;;5058919;28;20028;-73
2020/12/01 01:15:13;;;;;;;10.65;7.43;;;1.00;74.50;;;;;;5040920;28;20439;-73
2020/12/01 01:17:39;;;;;;;9.23;6.95;;;0.80;75.20;;;;;;5058455;28;20045;-73
2020/12/01 01:20:06;;;;;;;10.98;7.03;;;0.60;75.50;;;;;;5059484;28;20017;-73
2020/12/01 01:22:31;;;;;;;11.45;7.00;;;0.50;75.50;;;;;;5058567;28;20095;-73
2020/12/01 01:24:57;;;;;;;8.95;6.32;;;0.40;75.20;;;;;;5058520;28;20017;-73
2020/12/01 01:27:23;;;;;;;10.00;6.47;;;0.40;75.60;;;;;;5058478;28;20029;-73
2020/12/01 01:29:49;;;;;;;8.52;6.55;;;0.40;75.20;;;;;;5058903;28;20051;-73
2020/12/01 01:32:14;;;;;;;11.43;6.93;;;0.40;74.80;;;;;;5058360;28;20035;-73
2020/12/01 01:34:40;;;;;;;8.25;6.40;;;0.40;75.60;;;;;;5040655;28;20037;-73
2020/12/01 01:37:06;;;;;;;10.23;7.07;;;0.40;75.70;;;;;;5058209;28;20321;-73
2020/12/01 01:39:32;;;;;;;10.57;7.07;;;0.30;75.60;;;;;;5058417;28;20020;-73
2020/12/01 01:41:57;;;;;;;10.85;6.75;;;0.30;75.40;;;;;;5058207;28;20021;-73
2020/12/01 01:44:26;;;;;;;11.82;6.85;;;0.40;75.40;;;;;;5058389;28;20409;-73
2020/12/01 01:46:55;;;;;;;10.50;7.10;;;0.30;75.60;;;;;;5058534;28;20067;-73
2020/12/01 01:49:28;;;;;;;8.65;6.20;;;0.30;75.80;;;;;;5058160;28;20048;-73
2020/12/01 01:51:56;;;;;;;10.65;7.00;;;0.30;75.70;;;;;;5058131;28;20455;-73
2020/12/01 01:54:23;;;;;;;10.80;7.25;;;0.30;76.30;;;;;;5057859;28;20021;-73
2020/12/01 01:56:54;;;;;;;9.18;6.57;;;0.30;75.70;;;;;;5040076;28;20029;-73
2020/12/01 01:59:22;;;;;;;11.30;6.82;;;0.40;75.80;;;;;;5057822;28;20025;-73
2020/12/01 02:01:50;;;;;;;10.05;6.65;;;0.30;76.00;;;;;;5057853;28;20021;-73
2020/12/01 02:04:16;;;;;;;11.20;6.55;;;0.40;76.00;;;;;;5057757;28;20045;-73
2020/12/01 02:06:47;;;;;;;10.57;6.68;;;0.40;76.10;;;;;;5057717;28;20479;-73
2020/12/01 02:09:21;;;;;;;10.45;6.70;;;0.40;76.10;;;;;;5057718;28;20017;-73
2020/12/01 02:11:48;;;;;;;10.00;6.43;;;0.50;76.20;;;;;;5058008;28;20075;-73
2020/12/01 02:14:27;;;;;;;9.18;6.93;;;0.50;76.00;;;;;;5057495;28;20410;-73
2020/12/01 02:16:58;;;;;;;9.20;6.22;;;0.50;75.90;;;;;;5057396;28;20045;-73
2020/12/01 02:19:28;;;;;;;9.52;6.88;;;0.40;75.80;;;;;;5057590;28;20021;-73
2020/12/01 02:21:56;;;;;;;8.43;5.95;;;0.40;76.20;;;;;;5039801;28;20115;-73
2020/12/01 02:24:27;;;;;;;12.60;6.72;;;0.40;76.00;;;;;;5057300;28;20369;-73
2020/12/01 02:26:55;;;;;;;11.27;7.45;;;0.40;76.00;;;;;;5057365;28;20032;-73
2020/12/01 02:29:30;;;;;;;8.52;6.68;;;0.40;75.70;;;;;;5039681;28;20025;-73
2020/12/01 02:31:56;;;;;;;9.88;6.53;;;0.40;75.50;;;;;;5057504;28;20024;-73
2020/12/01 02:34:37;;;;;;;10.52;6.95;;;0.50;75.30;;;;;;5057219;28;20398;-73
2020/12/01 02:37:03;;;;;;;10.85;6.88;;;0.70;74.60;;;;;;5057229;28;20321;-73
2020/12/01 02:39:29;;;;;;;11.82;6.82;;;0.80;74.00;;;;;;5057185;28;20017;-73
2020/12/01 02:42:00;;;;;;;12.82;7.03;;;0.90;73.70;;;;;;5057111;28;20031;-73
2020/12/01 02:44:27;;;;;;;12.35;7.20;;;0.90;73.40;;;;;;5057001;28;20025;-73
2020/12/01 02:46:55;;;;;;;9.93;6.20;;;1.00;73.00;;;;;;5056428;28;20306;-73
2020/12/01 02:49:21;;;;;;;10.75;7.35;;;1.00;72.80;;;;;;5057012;28;20025;-73
2020/12/01 02:51:47;;;;;;;11.27;6.85;;;1.00;72.80;;;;;;5057028;28;20078;-73
2020/12/01 02:54:13;;;;;;;9.35;6.82;;;0.90;73.10;;;;;;5057024;28;20095;-73
2020/12/01 02:56:39;;;;;;;13.00;6.95;;;0.80;73.30;;;;;;5056784;28;20488;-73
2020/12/01 02:59:05;;;;;;;9.55;6.47;;;0.60;73.90;;;;;;5057174;28;20017;-73
2020/12/01 03:01:30;;;;;;;10.23;6.82;;;0.50;74.20;;;;;;5056794;28;20306;-73
2020/12/01 03:03:56;;;;;;;10.05;6.82;;;0.40;74.90;;;;;;5056716;28;20104;-73
2020/12/01 03:06:22;;;;;;;11.95;7.07;;;0.30;75.30;;;;;;5056687;28;20028;-73
2020/12/01 03:08:48;;;;;;;9.48;6.63;;;0.30;75.40;;;;;;5056397;28;20154;-73
2020/12/01 03:11:14;;;;;;;10.07;7.35;;;0.20;75.50;;;;;;5056682;28;20054;-73
2020/12/01 03:13:40;;;;;;;10.93;7.20;;;0.20;75.70;;;;;;5056569;28;20025;-73
2020/12/01 03:16:09;;;;;;;10.90;7.22;;;0.20;75.70;;;;;;5056337;28;20060;-73
2020/12/01 03:18:38;;;;;;;9.85;6.97;;;0.30;75.70;;;;;;5056811;28;20345;-73
2020/12/01 03:21:05;;;;;;;9.82;6.25;;;0.30;75.50;;;;;;5056461;28;20104;-73
2020/12/01 03:23:31;;;;;;;9.93;6.80;;;0.40;75.30;;;;;;5056473;28;20025;-73
2020/12/01 03:25:57;;;;;;;11.95;7.88;;;0.30;75.40;;;;;;5056553;28;20017;-73
2020/12/01 03:28:23;;;;;;;13.38;7.50;;;0.30;75.30;;;;;;5056516;28;20025;-73
2020/12/01 03:30:49;;;;;;;10.48;6.68;;;0.30;75.50;;;;;;5056600;28;20052;-73
2020/12/01 03:33:15;;;;;;;9.90;6.70;;;0.30;75.30;;;;;;5056465;28;20025;-73
2020/12/01 03:35:40;;;;;;;9.68;6.90;;;0.30;75.80;;;;;;5056377;28;20371;-73
2020/12/01 03:38:06;;;;;;;8.57;6.15;;;0.20;76.10;;;;;;5056335;28;20021;-73
2020/12/01 03:40:32;;;;;;;10.90;6.90;;;0.20;76.10;;;;;;5056431;28;20032;-73
2020/12/01 03:42:58;;;;;;;9.55;6.65;;;0.10;76.30;;;;;;5056365;28;20017;-73
2020/12/01 03:45:23;;;;;;;10.73;6.93;;;0.00;76.30;;;;;;5056319;28;20292;-73
2020/12/01 03:47:53;;;;;;;9.65;6.80;;;0.00;76.60;;;;;;5056347;28;20030;-73
2020/12/01 03:50:19;;;;;;;9.60;7.05;;;0.00;76.50;;;;;;5056885;28;20025;-73
2020/12/01 03:52:44;;;;;;;10.00;6.32;;;0.00;76.80;;;;;;5055250;28;20040;-73
2020/12/01 03:55:10;;;;;;;8.93;6.57;;;0.00;76.80;;;;;;5056241;28;20041;-73
2020/12/01 03:57:42;;;;;;;8.75;6.30;;;0.10;76.10;;;;;;5056130;28;20033;-73
2020/12/01 04:00:10;;;;;;;10.10;6.75;;;0.20;75.80;;;;;;5056265;28;20021;-73
2020/12/01 04:02:36;;;;;;;10.73;7.00;;;0.20;75.60;;;;;;5056268;28;20028;-73
2020/12/01 04:05:02;;;;;;;9.20;7.00;;;0.20;75.40;;;;;;5056196;28;20029;-73
2020/12/01 04:07:28;;;;;;;10.10;6.30;;;0.20;75.30;;;;;;5056118;28;20022;-73
2020/12/01 04:09:54;;;;;;;8.85;6.10;;;0.20;75.30;;;;;;5056174;28;20375;-73
2020/12/01 04:12:19;;;;;;;8.27;6.20;;;0.20;75.50;;;;;;5056212;28;20032;-73
2020/12/01 04:14:45;;;;;;;8.80;6.35;;;0.10;75.40;;;;;;5056053;28;20029;-73
2020/12/01 04:17:11;;;;;;;9.65;6.72;;;0.10;75.10;;;;;;5054786;28;20068;-73
2020/12/01 04:19:36;;;;;;;10.43;6.70;;;0.10;75.10;;;;;;5039703;28;20435;-73
2020/12/01 04:22:02;;;;;;;10.82;6.68;;;0.20;74.90;;;;;;5059753;28;20029;-73
2020/12/01 04:24:28;;;;;;;9.55;6.65;;;0.30;74.20;;;;;;5059683;28;20100;-73
2020/12/01 04:26:53;;;;;;;9.85;6.40;;;0.40;73.90;;;;;;5059996;28;20029;-73
2020/12/01 04:29:19;;;;;;;9.32;6.25;;;0.30;74.80;;;;;;5042006;28;20017;-73
2020/12/01 04:31:45;;;;;;;9.95;7.18;;;0.20;75.10;;;;;;5059588;28;20032;-73
2020/12/01 04:34:10;;;;;;;8.85;6.28;;;0.10;75.90;;;;;;5059502;28;20029;-73
2020/12/01 04:36:36;;;;;;;10.13;6.13;;;0.10;76.40;;;;;;5059418;28;20029;-73
2020/12/01 04:39:02;;;;;;;8.93;6.15;;;0.10;76.50;;;;;;5059687;28;20024;-73
2020/12/01 04:41:28;;;;;;;9.98;6.82;;;0.10;76.60;;;;;;5059622;28;20025;-73
2020/12/01 04:43:58;;;;;;;9.93;6.97;;;0.10;76.30;;;;;;5059276;28;20409;-73
2020/12/01 04:46:26;;;;;;;7.93;6.30;;;0.10;76.60;;;;;;5059609;28;20029;-73
2020/12/01 04:49:02;;;;;;;10.65;6.90;;;0.00;76.80;;;;;;5059384;28;20037;-73
2020/12/01 04:52:01;;;;;;;9.98;6.55;;;0.00;77.10;;;;;;5059423;28;20107;-73
2020/12/01 04:54:35;;;;;;;11.25;7.53;;;0.00;77.10;;;;;;5059261;28;20033;-73
2020/12/01 04:57:35;;;;;;;8.73;6.38;;;0.10;76.90;;;;;;5059034;28;20025;-73
2020/12/01 05:00:19;;;;;;;10.13;6.65;;;0.10;76.90;;;;;;5059502;28;20104;-73
2020/12/01 05:03:13;;;;;;;8.98;6.32;;;0.20;76.50;;;;;;5058949;28;20025;-73
2020/12/01 05:08:36;;;;;;;8.73;5.88;;;0.20;76.90;;;;;;5059174;28;20040;-73
2020/12/01 05:11:14;;;;;;;9.90;6.35;;;0.20;77.50;;;;;;5059342;28;20104;-73
2020/12/01 05:13:40;;;;;;;11.65;7.50;;;0.10;77.90;;;;;;5058743;28;20048;-73
2020/12/01 05:16:49;;;;;;;9.93;6.50;;;0.10;77.90;;;;;;5058319;28;20045;-73
2020/12/01 05:19:39;;;;;;;9.50;6.45;;;0.00;77.50;;;;;;5049523;28;20047;-73
2020/12/01 05:22:05;;;;;;;10.07;6.80;;;0.00;77.70;;;;;;5058597;28;20025;-73
2020/12/01 05:24:41;;;;;;;13.60;6.75;;;0.00;78.00;;;;;;5058533;28;20025;-73
2020/12/01 05:27:17;;;;;;;;;;;0.00;77.60;;;;;;5058935;28;20029;-73
2020/12/01 05:29:43;;;;;;;10.25;5.70;;;0.00;77.10;;;;;;5058344;28;19905;-73
2020/12/01 05:32:09;;;;;;;9.43;6.38;;;-0.10;77.00;;;;;;5058436;28;20021;-73
2020/12/01 05:34:34;;;;;;;9.38;5.95;;;0.00;77.00;;;;;;5058335;28;20035;-73
2020/12/01 05:37:05;;;;;;;10.55;6.35;;;0.00;77.60;;;;;;5058446;28;20107;-73
2020/12/01 05:39:34;;;;;;;7.25;5.50;;;0.00;77.60;;;;;;5058513;28;20504;-73
2020/12/01 05:42:06;;;;;;;9.35;6.78;;;-0.10;77.50;;;;;;5058195;28;20048;-73
2020/12/01 05:44:33;;;;;;;9.27;6.13;;;-0.10;76.90;;;;;;5058175;28;20108;-73
2020/12/01 05:47:02;;;;;;;7.72;5.57;;;-0.10;76.90;;;;;;5058646;28;20297;-73
2020/12/01 05:49:44;;;;;;;9.63;6.13;;;-0.10;77.00;;;;;;5058206;28;20045;-73
2020/12/01 05:52:29;;;;;;;8.52;5.90;;;-0.10;77.10;;;;;;5058171;28;20299;-73
2020/12/01 05:55:18;;;;;;;6.28;4.45;;;-0.10;77.10;;;;;;5058165;28;20033;-73
2020/12/01 05:57:55;;;;;;;9.75;6.38;;;-0.20;77.60;;;;;;5057956;28;20056;-73
2020/12/01 06:00:23;;;;;;;7.32;5.60;;;-0.20;77.50;;;;;;5057946;28;20377;-73
2020/12/01 06:02:59;;;;;;;10.23;6.63;;;-0.30;77.60;;;;;;5057871;28;20013;-73
2020/12/01 06:05:26;;;;;;;11.05;6.95;;;-0.30;77.80;;;;;;5057834;28;20063;-73
2020/12/01 06:07:58;;;;;;;8.82;5.68;;;-0.30;77.90;;;;;;5056695;28;20428;-73
2020/12/01 06:10:34;;;;;;;11.05;6.90;;;-0.40;78.30;;;;;;5056712;28;20033;-73
2020/12/01 06:13:21;;;;;;;15.07;9.50;;;-0.40;78.00;;;;;;5057705;28;20368;-73
2020/12/01 06:15:53;;;;;;;;;;;-0.40;77.60;;;;;;5058157;28;20108;-73
2020/12/01 06:18:32;;;;;;;13.93;9.20;;;-0.30;77.80;;;;;;5057578;28;19962;-73
2020/12/01 06:21:08;;;;;;;13.95;9.90;;;-0.30;77.40;;;;;;5057735;28;20021;-73
2020/12/01 06:24:14;;;;;;;13.90;9.73;;;-0.30;77.00;;;;;;5057699;28;20025;-73
2020/12/01 06:27:16;;;;;;;14.35;9.85;;;-0.30;77.00;;;;;;5057682;28;20325;-73
2020/12/01 06:30:12;;;;;;;15.32;9.30;;;-0.30;77.20;;;;;;5056642;28;20044;-73
2020/12/01 06:32:38;;;;;;;12.10;7.68;;;-0.30;76.90;;;;;;5057464;28;20037;-73
2020/12/01 06:35:22;;;;;;;11.23;6.65;;;-0.30;76.70;;;;;;5056155;28;20056;-73
2020/12/01 06:38:12;;;;;;;8.93;5.97;;;-0.30;76.10;;;;;;5057108;28;20040;-73
2020/12/01 06:40:51;;;;;;;8.85;6.13;;;-0.30;76.00;;;;;;5057245;28;20032;-73
2020/12/01 06:43:36;;;;;;;10.18;5.95;;;-0.30;76.70;;;;;;5056429;28;20021;-73
2020/12/01 06:46:02;;;;;;;12.40;6.28;;;-0.20;76.50;;;;;;5057113;28;20032;-73
2020/12/01 06:48:42;;;;;;;10.05;5.93;;;-0.20;77.00;;;;;;5057032;28;20039;-73
2020/12/01 06:51:11;;;;;;;9.32;5.75;;;-0.20;76.50;;;;;;5057199;28;20015;-73
2020/12/01 06:53:39;;;;;;;9.35;5.90;;;-0.20;76.50;;;;;;5055871;28;20029;-73
2020/12/01 06:56:05;;;;;;;10.18;6.38;;;-0.10;76.80;;;;;;5057074;28;20028;-73
2020/12/01 06:58:42;;;;;;;10.05;6.20;;;-0.10;76.80;;;;;;5056887;28;20025;-73
2020/12/01 07:01:24;;;;;;;8.70;6.15;;;0.00;77.20;;;;;;5057055;28;20104;-73
2020/12/01 07:04:13;;;;;;;8.90;6.13;;;0.00;77.70;;;;;;5056688;28;20021;-73
2020/12/01 07:06:47;;;;;;;10.75;6.88;;;0.00;78.40;;;;;;5044735;28;20041;-73
2020/12/01 07:09:30;;;;;;;14.82;8.05;;;0.00;78.80;;;;;;5056947;28;20083;-73
2020/12/01 07:12:21;;;;;;;11.68;7.63;;;0.10;78.70;;;;;;5057066;28;20017;-73
2020/12/01 07:15:02;;;;;;;12.25;7.07;;;0.20;78.40;;;;;;5056792;28;20032;-73
2020/12/01 07:17:38;;;;;;;10.18;7.43;;;0.30;78.40;;;;;;5056460;28;20052;-73
2020/12/01 07:20:09;;;;;;;10.45;6.88;;;0.40;77.40;;;;;;5056951;28;20021;-73
2020/12/01 07:22:55;;;;;;;13.40;7.57;;;0.40;77.30;;;;;;5056618;28;20409;-73
2020/12/01 07:25:35;;;;;;;11.23;7.28;;;0.50;77.00;;;;;;5056683;28;20413;-73
2020/12/01 07:28:21;;;;;;;17.30;7.10;;;0.60;75.60;;;;;;5056551;28;20021;-73
2020/12/01 07:30:50;;;;;;;9.15;6.40;;;0.80;75.00;;;;;;5056825;28;20055;-73
2020/12/01 07:33:21;;;;;;;8.95;5.72;;;0.90;75.00;;;;;;5056422;28;20368;-73
2020/12/01 07:36:11;;;;;;;8.80;5.68;;;0.90;70.80;;;;;;5056428;28;20083;-73
2020/12/01 07:38:46;;;;;;;9.40;6.25;;;1.10;70.30;;;;;;5056685;28;20048;-73
2020/12/01 07:41:40;;;;;;;8.70;5.72;;;1.20;70.20;;;;;;5056634;28;20405;-73
2020/12/01 07:44:10;;;;;;;9.05;6.25;;;1.30;70.80;;;;;;5056250;28;20422;-73
2020/12/01 07:46:49;;;;;;;9.90;5.85;;;1.40;69.80;;;;;;5056653;28;20040;-73
2020/12/01 07:49:19;;;;;;;8.02;5.72;;;1.50;70.50;;;;;;5056462;28;20029;-73
2020/12/01 07:51:47;;;;;;;8.82;5.75;;;1.50;70.20;;;;;;5056562;28;20027;-73
2020/12/01 07:54:22;;;;;;;8.27;5.85;;;1.60;70.20;;;;;;5058655;28;20029;-73
2020/12/01 07:56:48;;;;;;;8.98;6.32;;;1.70;70.20;;;;;;5060342;28;20107;-73
2020/12/01 07:59:15;;;;;;;9.55;5.68;;;1.80;71.40;;;;;;5060819;28;20053;-73
2020/12/01 08:01:42;;;;;;;8.75;5.65;;;1.90;69.40;;;;;;5060165;28;20044;-73
2020/12/01 08:04:17;;;;;;;9.35;5.78;;;2.10;70.60;;;;;;5060004;28;20097;-73
2020/12/01 08:06:43;;;;;;;8.40;5.80;;;2.20;69.90;;;;;;5042719;28;20321;-73
2020/12/01 08:09:11;;;;;;;9.90;6.60;;;2.30;68.10;;;;;;5060057;28;20317;-73
2020/12/01 08:11:41;;;;;;;7.90;5.95;;;2.40;70.30;;;;;;5059990;28;20021;-73
2020/12/01 08:14:07;;;;;;;9.50;5.97;;;2.50;69.90;;;;;;5060187;28;20029;-73
2020/12/01 08:16:33;;;;;;;8.10;5.60;;;2.70;69.00;;;;;;5059538;28;20102;-73
2020/12/01 08:18:59;;;;;;;9.60;5.45;;;2.90;65.00;;;;;;5058801;28;20048;-73
2020/12/01 08:21:33;;;;;;;7.05;5.00;;;3.10;67.80;;;;;;5059878;28;20047;-73
2020/12/01 08:24:03;;;;;;;8.60;6.03;;;3.10;67.20;;;;;;5058718;28;20075;-73
2020/12/01 08:26:31;;;;;;;8.80;6.05;;;3.10;65.40;;;;;;5059961;28;20021;-73
2020/12/01 08:29:16;;;;;;;10.27;6.03;;;3.20;66.10;;;;;;5059671;28;20459;-73
2020/12/01 08:32:23;;;;;;;9.52;5.97;;;3.30;64.50;;;;;;5059625;28;20075;-73
2020/12/01 08:34:52;;;;;;;8.35;5.75;;;3.40;66.00;;;;;;5059566;28;20476;-73
2020/12/01 08:37:43;;;;;;;8.65;7.10;;;3.40;65.30;;;;;;5059491;28;20071;-73
2020/12/01 08:40:21;;;;;;;12.40;5.50;;;3.40;66.70;;;;;;5059637;28;20027;-73
2020/12/01 08:43:15;;;;;;;10.00;5.93;;;3.50;66.60;;;;;;5059564;28;20021;-73
2020/12/01 08:46:08;;;;;;;6.85;4.95;;;3.70;63.80;;;;;;5059425;28;20074;-73
2020/12/01 08:48:48;;;;;;;7.85;6.20;;;3.80;64.80;;;;;;5049461;28;20040;-73
2020/12/01 08:51:32;;;;;;;11.02;6.90;;;4.00;64.80;;;;;;5059218;28;20021;-73
2020/12/01 08:53:58;;;;;;;8.35;5.57;;;4.00;64.00;;;;;;5059402;28;20021;-73
2020/12/01 08:56:49;;;;;;;7.63;5.88;;;4.20;63.10;;;;;;5059080;28;20029;-73
2020/12/01 08:59:34;;;;;;;8.18;5.90;;;4.40;62.60;;;;;;5058586;28;20425;-73
2020/12/01 09:02:02;;;;;;;10.77;7.57;;;4.90;63.30;;;;;;5059331;28;20314;-73
2020/12/01 09:04:30;;;;;;;11.07;8.13;;;4.90;61.10;;;;;;5058597;28;20013;-73
2020/12/01 09:07:14;;;;;;;10.43;8.00;;;4.90;60.60;;;;;;5058726;28;20039;-73
2020/12/01 09:09:41;;;;;;;10.38;7.93;;;5.00;61.90;;;;;;5059159;28;20024;-73
2020/12/01 09:12:20;;;;;;;11.07;7.25;;;4.90;60.90;;;;;;5058982;28;20028;-73
2020/12/01 09:22:49;;;;;;;9.73;7.40;;;5.10;59.10;;;;;;5058694;28;20325;-73
2020/12/01 09:25:22;;;;;;;10.02;7.28;;;5.40;61.00;;;;;;5057493;28;20021;-73
2020/12/01 09:27:49;;;;;;;8.63;6.03;;;5.90;58.40;;;;;;5058289;28;20032;-73
2020/12/01 09:30:37;;;;;;;10.15;7.50;;;6.40;58.20;;;;;;5058507;28;20103;-73
2020/12/01 09:33:04;;;;;;;9.93;7.28;;;6.90;56.80;;;;;;5058343;28;20298;-73
2020/12/01 09:35:30;;;;;;;11.75;6.30;;;7.30;55.70;;;;;;5058406;28;20139;-73
2020/12/01 09:37:57;;;;;;;8.98;6.47;;;7.80;52.20;;;;;;5058291;28;20104;-73
2020/12/01 09:40:26;;;;;;;8.95;6.65;;;8.10;52.60;;;;;;5058515;28;20025;-73
2020/12/01 09:42:55;;;;;;;8.93;6.38;;;8.00;51.60;;;;;;5058240;28;20017;-73
2020/12/01 09:47:55;;;;;;;11.25;6.82;;;7.60;52.30;;;;;;5058492;28;20037;-73
2020/12/01 09:50:29;;;;;;;7.47;5.90;;;7.60;51.60;;;;;;5058345;28;20036;-73
2020/12/01 09:55:51;;;;;;;8.95;6.47;;;6.90;54.70;;;;;;5058356;28;20072;-73
2020/12/01 10:08:48;;;;;;;10.43;6.95;;;5.90;56.90;;;;;;5062812;28;20305;-73
2020/12/01 10:14:09;;;;;;;9.60;6.93;;;6.50;55.80;;;;;;5077651;28;20077;-73
2020/12/01 10:35:28;;;;;;;11.13;8.15;;;9.50;49.80;;;;;;5077558;28;20055;-73
2020/12/01 10:37:59;;;;;;;12.13;7.82;;;9.20;49.00;;;;;;5064811;28;20060;-73
2020/12/01 10:40:27;;;;;;;16.48;8.40;;;8.90;49.50;;;;;;5076003;28;20103;-73
2020/12/01 10:42:53;;;;;;;10.52;8.05;;;8.60;50.80;;;;;;5077004;28;20059;-73
2020/12/01 10:45:20;;;;;;;11.93;8.70;;;8.60;51.90;;;;;;5077062;28;20025;-73
2020/12/01 10:47:46;;;;;;;11.77;7.68;;;8.90;50.50;;;;;;5059393;28;20033;-73
2020/12/01 10:50:14;;;;;;;10.20;7.57;;;9.40;49.00;;;;;;5077359;28;20025;-73
2020/12/01 10:52:39;;;;;;;11.18;8.15;;;10.00;48.00;;;;;;5076972;28;20082;-73
2020/12/01 10:55:07;;;;;;;11.30;8.68;;;10.60;48.00;;;;;;5076970;28;20032;-71
2020/12/01 10:57:35;;;;;;;11.95;7.70;;;10.70;46.60;;;;;;5076900;28;20032;-73
2020/12/01 11:00:04;;;;;;;14.65;8.68;;;10.70;46.30;;;;;;5077421;28;20021;-71
2020/12/01 11:02:29;;;;;;;13.05;8.38;;;10.80;46.60;;;;;;5076878;28;20056;-73
2020/12/01 11:04:55;;;;;;;13.68;9.70;;;10.30;48.00;;;;;;5059030;28;20048;-73
2020/12/01 11:07:21;;;;;;;11.05;7.97;;;9.40;49.20;;;;;;5076979;28;20032;-73
2020/12/01 11:09:46;;;;;;;10.80;8.30;;;8.80;50.90;;;;;;5076819;28;20469;-73
2020/12/01 11:12:12;;;;;;;11.23;8.10;;;8.20;53.40;;;;;;5076732;28;20036;-73
2020/12/01 11:14:37;;;;;;;11.77;8.77;;;7.50;53.40;;;;;;5076717;28;20137;-73
2020/12/01 11:17:03;;;;;;;10.48;8.43;;;7.00;55.60;;;;;;5076638;28;20318;-73
2020/12/01 11:19:29;;;;;;;9.60;8.13;;;6.40;57.20;;;;;;5076666;28;20032;-73
2020/12/01 11:21:55;;;;;;;11.80;8.63;;;6.00;57.60;;;;;;5076798;28;20021;-73
2020/12/01 11:24:20;;;;;;;11.32;7.93;;;5.70;59.80;;;;;;5076725;28;20029;-73
2020/12/01 11:26:46;;;;;;;10.07;7.65;;;5.40;60.60;;;;;;5076884;28;20032;-73
2020/12/01 11:29:12;;;;;;;10.02;7.35;;;5.30;59.90;;;;;;5076231;28;20028;-73
2020/12/01 11:31:41;;;;;;;11.25;7.70;;;5.20;61.50;;;;;;5076539;28;20025;-73
2020/12/01 11:34:10;;;;;;;11.73;8.77;;;5.20;60.40;;;;;;5076708;28;20103;-73
2020/12/01 11:36:37;;;;;;;11.35;8.48;;;5.10;60.20;;;;;;5076405;28;20111;-73
2020/12/01 11:39:05;;;;;;;10.43;7.78;;;5.10;60.30;;;;;;5076826;28;20075;-73
2020/12/01 11:41:31;;;;;;;10.52;7.95;;;5.10;59.20;;;;;;5076484;28;20024;-73
2020/12/01 11:43:56;;;;;;;12.57;8.07;;;5.00;60.60;;;;;;5076415;28;20032;-73
2020/12/01 11:46:22;;;;;;;9.00;7.68;;;4.90;60.30;;;;;;5076757;28;20054;-73
2020/12/01 11:48:48;;;;;;;12.27;7.05;;;4.90;61.50;;;;;;5076589;28;20064;-73
2020/12/01 11:51:14;;;;;;;12.30;7.75;;;4.90;60.60;;;;;;5076367;28;20028;-73
2020/12/01 11:53:40;;;;;;;10.57;7.93;;;4.90;59.50;;;;;;5076308;28;20028;-73
2020/12/01 11:56:06;;;;;;;12.82;7.80;;;4.80;61.20;;;;;;5076243;28;20049;-73
2020/12/01 11:58:32;;;;;;;13.13;8.65;;;4.70;60.10;;;;;;5076296;28;20105;-73
2020/12/01 12:00:58;;;;;;;10.55;7.60;;;4.50;60.50;;;;;;5076465;28;20016;-73
2020/12/01 12:03:23;;;;;;;11.90;7.43;;;4.40;63.00;;;;;;5076190;28;20131;-73
2020/12/01 12:05:49;;;;;;;11.80;7.90;;;4.40;62.20;;;;;;5076263;28;20432;-73
2020/12/01 12:08:15;;;;;;;11.63;7.95;;;4.50;61.00;;;;;;5076218;28;20029;-73
2020/12/01 12:10:41;;;;;;;15.32;8.52;;;4.40;62.90;;;;;;5076244;28;20028;-73
2020/12/01 12:13:06;;;;;;;9.88;8.50;;;4.40;62.00;;;;;;5076145;28;20025;-73
2020/12/01 12:15:32;;;;;;;10.57;7.93;;;4.40;62.00;;;;;;5076194;28;20029;-73
2020/12/01 12:17:58;;;;;;;10.75;8.48;;;4.40;63.00;;;;;;5075890;28;20123;-73
2020/12/01 12:20:23;;;;;;;12.50;8.10;;;4.40;62.80;;;;;;5076157;28;20009;-73
2020/12/01 12:22:49;;;;;;;10.63;7.68;;;4.40;63.00;;;;;;5076030;28;20036;-73
2020/12/01 12:25:15;;;;;;;11.27;8.38;;;4.50;63.50;;;;;;5076005;28;20028;-73
2020/12/01 12:27:40;;;;;;;15.80;8.05;;;4.50;62.90;;;;;;5076087;28;20385;-73
2020/12/01 12:30:06;;;;;;;16.27;10.30;;;4.50;62.50;;;;;;5076295;28;20078;-73
2020/12/01 12:32:32;;;;;;;12.05;8.73;;;4.40;63.50;;;;;;5075990;28;20024;-73
2020/12/01 12:34:58;;;;;;;12.73;8.70;;;4.30;63.90;;;;;;5075931;28;20017;-73
2020/12/01 12:37:24;;;;;;;11.73;8.27;;;4.20;64.00;;;;;;5075835;28;20028;-73
2020/12/01 12:39:49;;;;;;;11.25;9.02;;;4.20;63.80;;;;;;5076235;28;20025;-73
2020/12/01 12:42:15;;;;;;;14.02;8.50;;;4.20;65.40;;;;;;5079458;28;20025;-73
2020/12/01 12:44:41;;;;;;;14.65;9.38;;;4.20;64.10;;;;;;5079609;28;20099;-73
2020/12/01 12:47:06;;;;;;;12.80;9.43;;;4.20;64.00;;;;;;5061788;28;20037;-73
2020/12/01 12:49:32;;;;;;;13.63;8.95;;;4.10;65.80;;;;;;5079526;28;20029;-73
2020/12/01 12:51:58;;;;;;;13.10;9.07;;;4.10;65.50;;;;;;5079265;28;20058;-73
2020/12/01 12:54:24;;;;;;;15.20;9.73;;;4.20;65.90;;;;;;5079186;28;20029;-73
2020/12/01 12:56:49;;;;;;;13.93;9.32;;;4.20;65.10;;;;;;5079279;28;20033;-73
2020/12/01 12:59:15;;;;;;;12.55;9.02;;;4.20;64.70;;;;;;5079489;28;20017;-73
2020/12/01 13:01:41;;;;;;;13.50;9.30;;;4.10;66.20;;;;;;5061277;28;20021;-73
2020/12/01 13:04:07;;;;;;;14.15;9.70;;;4.10;65.00;;;;;;5079021;28;20013;-73
2020/12/01 13:06:32;;;;;;;13.88;9.82;;;4.10;65.50;;;;;;5079031;28;20392;-73
2020/12/01 13:08:58;;;;;;;12.93;9.45;;;4.20;64.90;;;;;;5079289;28;20017;-73
2020/12/01 13:11:24;;;;;;;11.00;8.55;;;4.20;65.20;;;;;;5079382;28;20104;-73
2020/12/01 13:13:49;;;;;;;16.50;9.20;;;4.20;65.60;;;;;;5078844;28;20417;-73
2020/12/01 13:16:15;;;;;;;12.25;9.35;;;4.20;63.80;;;;;;5078449;28;20036;-73
2020/12/01 13:18:41;;;;;;;14.20;9.35;;;4.10;65.90;;;;;;5079009;28;20029;-73
2020/12/01 13:21:07;;;;;;;16.15;9.55;;;4.20;65.40;;;;;;5079006;28;20048;-73
2020/12/01 13:23:33;;;;;;;13.93;10.00;;;4.10;66.10;;;;;;5078680;28;20110;-73
2020/12/01 13:25:59;;;;;;;15.90;9.20;;;4.10;66.90;;;;;;5078640;28;20475;-73
2020/12/01 13:28:25;;;;;;;13.50;9.65;;;4.00;65.80;;;;;;5078598;28;20059;-73
2020/12/01 13:30:50;;;;;;;13.75;10.32;;;4.10;65.40;;;;;;5078752;28;20047;-73
2020/12/01 13:33:16;;;;;;;16.17;9.15;;;4.10;64.80;;;;;;5078518;28;20400;-73
2020/12/01 13:35:42;;;;;;;13.60;9.82;;;4.20;64.60;;;;;;5060699;28;20024;-73
2020/12/01 13:38:07;;;;;;;13.68;9.73;;;4.20;66.60;;;;;;5078316;28;20106;-73
2020/12/01 13:40:33;;;;;;;14.35;9.90;;;4.30;65.60;;;;;;5060653;28;20048;-73
2020/12/01 13:42:59;;;;;;;13.55;10.13;;;4.30;66.00;;;;;;5078392;28;20316;-73
2020/12/01 13:45:25;;;;;;;16.75;10.68;;;4.30;66.00;;;;;;5078165;28;20062;-73
2020/12/01 13:47:50;;;;;;;17.05;10.48;;;4.30;65.10;;;;;;5078295;28;20036;-73
2020/12/01 13:50:24;;;;;;;12.80;10.00;;;4.30;66.00;;;;;;5060471;28;20302;-73
2020/12/01 13:52:50;;;;;;;14.43;9.27;;;4.30;65.40;;;;;;5077898;28;20196;-73
2020/12/01 13:55:16;;;;;;;11.68;8.80;;;4.20;64.80;;;;;;5077992;28;20109;-73